sensor_id;sensor_type;location;lat;lon;timestamp;pressure;altitude;pressure_sealevel;temperature;humidity
54854;BME280;40747;49.480;8.658;2023-03-04T00:01:30;101041.31;;;-0.74;96.79
54854;BME280;40747;49.480;8.658;2023-03-04T00:03:55;101065.09;;;-0.55;96.93
54854;BME280;40747;49.480;8.658;2023-03-04T00:06:21;101059.78;;;-0.61;96.56
54854;BME280;40747;49.480;8.658;2023-03-04T00:08:46;101060.22;;;-0.76;97.14
54854;BME280;40747;49.480;8.658;2023-03-04T00:11:11;101065.44;;;-0.75;97.63
54854;BME280;40747;49.480;8.658;2023-03-04T00:13:36;101058.34;;;-0.82;97.96
54854;BME280;40747;49.480;8.658;2023-03-04T00:16:02;101062.91;;;-0.72;98.37
54854;BME280;40747;49.480;8.658;2023-03-04T00:18:27;101065.31;;;-0.79;98.40
54854;BME280;40747;49.480;8.658;2023-03-04T00:20:52;101062.22;;;-0.66;98.16
54854;BME280;40747;49.480;8.658;2023-03-04T00:23:18;101071.41;;;-0.77;98.27
54854;BME280;40747;49.480;8.658;2023-03-04T00:25:43;101066.38;;;-0.73;97.87
54854;BME280;40747;49.480;8.658;2023-03-04T00:28:08;101068.22;;;-0.67;97.41
54854;BME280;40747;49.480;8.658;2023-03-04T00:30:33;101066.94;;;-0.83;97.68
54854;BME280;40747;49.480;8.658;2023-03-04T00:32:59;101059.88;;;-0.89;97.95
54854;BME280;40747;49.480;8.658;2023-03-04T00:35:24;101069.94;;;-1.00;98.23
54854;BME280;40747;49.480;8.658;2023-03-04T00:37:49;101066.34;;;-1.05;98.19
54854;BME280;40747;49.480;8.658;2023-03-04T00:40:15;101067.06;;;-1.09;98.22
54854;BME280;40747;49.480;8.658;2023-03-04T00:42:40;101069.75;;;-1.06;98.06
54854;BME280;40747;49.480;8.658;2023-03-04T00:45:07;101084.88;;;-1.20;98.88
54854;BME280;40747;49.480;8.658;2023-03-04T00:47:32;101077.47;;;-1.07;99.06
54854;BME280;40747;49.480;8.658;2023-03-04T00:49:57;101085.13;;;-1.10;98.75
54854;BME280;40747;49.480;8.658;2023-03-04T00:52:23;101080.44;;;-1.24;99.26
54854;BME280;40747;49.480;8.658;2023-03-04T00:54:48;101071.66;;;-1.29;99.26
54854;BME280;40747;49.480;8.658;2023-03-04T00:57:16;101083.03;;;-1.24;99.88
54854;BME280;40747;49.480;8.658;2023-03-04T00:59:42;101056.66;;;-1.41;98.88
54854;BME280;40747;49.480;8.658;2023-03-04T01:02:08;101086.81;;;-1.41;99.98
54854;BME280;40747;49.480;8.658;2023-03-04T01:04:34;101082.84;;;-1.30;100.00
54854;BME280;40747;49.480;8.658;2023-03-04T01:06:59;101081.25;;;-1.25;100.00
54854;BME280;40747;49.480;8.658;2023-03-04T01:09:25;101076.41;;;-1.14;100.00
54854;BME280;40747;49.480;8.658;2023-03-04T01:11:51;101080.94;;;-1.07;99.21
54854;BME280;40747;49.480;8.658;2023-03-04T01:14:17;101072.94;;;-1.14;99.12
54854;BME280;40747;49.480;8.658;2023-03-04T01:16:42;101077.78;;;-0.96;99.00
54854;BME280;40747;49.480;8.658;2023-03-04T01:19:07;101075.28;;;-1.24;99.29
54854;BME280;40747;49.480;8.658;2023-03-04T01:21:33;101065.72;;;-1.26;99.98
54854;BME280;40747;49.480;8.658;2023-03-04T01:23:58;101072.72;;;-1.22;99.87
54854;BME280;40747;49.480;8.658;2023-03-04T01:26:23;101070.72;;;-1.31;99.81
54854;BME280;40747;49.480;8.658;2023-03-04T01:28:49;101073.66;;;-1.20;100.00
54854;BME280;40747;49.480;8.658;2023-03-04T01:31:14;101075.09;;;-1.30;99.58
54854;BME280;40747;49.480;8.658;2023-03-04T01:33:39;101066.41;;;-1.32;99.57
54854;BME280;40747;49.480;8.658;2023-03-04T01:36:05;101055.38;;;-1.26;99.80
54854;BME280;40747;49.480;8.658;2023-03-04T01:38:30;101047.66;;;-1.25;99.59
54854;BME280;40747;49.480;8.658;2023-03-04T01:40:56;101063.47;;;-1.14;98.73
54854;BME280;40747;49.480;8.658;2023-03-04T01:43:24;101053.75;;;-1.23;98.55
54854;BME280;40747;49.480;8.658;2023-03-04T01:45:52;101026.34;;;-1.46;98.60
54854;BME280;40747;49.480;8.658;2023-03-04T01:48:24;101053.84;;;-1.49;99.48
54854;BME280;40747;49.480;8.658;2023-03-04T01:50:51;101043.50;;;-1.49;99.91
54854;BME280;40747;49.480;8.658;2023-03-04T01:53:21;101047.44;;;-1.33;100.00
54854;BME280;40747;49.480;8.658;2023-03-04T01:55:48;101047.56;;;-1.28;99.90
54854;BME280;40747;49.480;8.658;2023-03-04T01:58:17;101046.84;;;-1.24;99.11
54854;BME280;40747;49.480;8.658;2023-03-04T02:00:42;101045.72;;;-1.32;99.11
54854;BME280;40747;49.480;8.658;2023-03-04T02:03:17;101035.13;;;-1.41;99.67
54854;BME280;40747;49.480;8.658;2023-03-04T02:05:47;101035.75;;;-1.20;99.77
54854;BME280;40747;49.480;8.658;2023-03-04T02:08:15;101043.25;;;-1.29;98.70
54854;BME280;40747;49.480;8.658;2023-03-04T02:10:42;101041.00;;;-1.47;99.50
54854;BME280;40747;49.480;8.658;2023-03-04T02:13:08;101039.03;;;-1.54;100.00
54854;BME280;40747;49.480;8.658;2023-03-04T02:15:33;101046.59;;;-1.60;100.00
54854;BME280;40747;49.480;8.658;2023-03-04T02:18:00;101041.78;;;-1.77;100.00
54854;BME280;40747;49.480;8.658;2023-03-04T02:20:44;101034.22;;;-1.71;100.00
54854;BME280;40747;49.480;8.658;2023-03-04T02:23:22;101025.31;;;-1.81;100.00
54854;BME280;40747;49.480;8.658;2023-03-04T02:26:07;101035.75;;;-1.77;100.00
54854;BME280;40747;49.480;8.658;2023-03-04T02:28:33;101034.00;;;-1.78;100.00
54854;BME280;40747;49.480;8.658;2023-03-04T02:30:58;101031.38;;;-1.80;100.00
54854;BME280;40747;49.480;8.658;2023-03-04T02:33:24;101029.03;;;-1.72;100.00
54854;BME280;40747;49.480;8.658;2023-03-04T02:35:49;101032.97;;;-1.84;100.00
54854;BME280;40747;49.480;8.658;2023-03-04T02:38:14;101022.13;;;-1.72;100.00
54854;BME280;40747;49.480;8.658;2023-03-04T02:40:42;101024.28;;;-1.58;100.00
54854;BME280;40747;49.480;8.658;2023-03-04T02:43:10;101004.66;;;-1.81;100.00
54854;BME280;40747;49.480;8.658;2023-03-04T02:48:04;101021.94;;;-1.51;99.54
54854;BME280;40747;49.480;8.658;2023-03-04T02:50:34;101024.59;;;-1.48;99.05
54854;BME280;40747;49.480;8.658;2023-03-04T02:53:00;101016.41;;;-1.61;99.80
54854;BME280;40747;49.480;8.658;2023-03-04T02:55:25;101023.03;;;-1.42;99.79
54854;BME280;40747;49.480;8.658;2023-03-04T02:57:51;101000.88;;;-1.63;99.16
54854;BME280;40747;49.480;8.658;2023-03-04T03:00:16;101026.44;;;-1.43;99.41
54854;BME280;40747;49.480;8.658;2023-03-04T03:02:42;101025.16;;;-1.58;100.00
54854;BME280;40747;49.480;8.658;2023-03-04T03:05:07;101017.72;;;-1.76;100.00
54854;BME280;40747;49.480;8.658;2023-03-04T03:07:32;101016.53;;;-1.86;100.00
54854;BME280;40747;49.480;8.658;2023-03-04T03:09:59;101011.00;;;-1.98;100.00
54854;BME280;40747;49.480;8.658;2023-03-04T03:12:25;101017.47;;;-1.84;100.00
54854;BME280;40747;49.480;8.658;2023-03-04T03:14:51;101009.25;;;-1.99;100.00
54854;BME280;40747;49.480;8.658;2023-03-04T03:17:17;101008.47;;;-1.96;100.00
54854;BME280;40747;49.480;8.658;2023-03-04T03:19:42;101006.09;;;-1.90;100.00
54854;BME280;40747;49.480;8.658;2023-03-04T03:22:07;101007.69;;;-1.65;100.00
54854;BME280;40747;49.480;8.658;2023-03-04T03:24:32;101008.53;;;-1.37;100.00
54854;BME280;40747;49.480;8.658;2023-03-04T03:26:58;101005.34;;;-1.28;98.82
54854;BME280;40747;49.480;8.658;2023-03-04T03:29:23;101010.81;;;-1.18;98.34
54854;BME280;40747;49.480;8.658;2023-03-04T03:31:49;101013.31;;;-1.21;97.36
54854;BME280;40747;49.480;8.658;2023-03-04T03:34:14;100999.91;;;-1.38;96.77
54854;BME280;40747;49.480;8.658;2023-03-04T03:36:39;101019.94;;;-1.87;98.36
54854;BME280;40747;49.480;8.658;2023-03-04T03:39:05;101024.75;;;-1.99;99.27
54854;BME280;40747;49.480;8.658;2023-03-04T03:41:30;101017.50;;;-2.11;100.00
54854;BME280;40747;49.480;8.658;2023-03-04T03:43:55;101028.53;;;-2.15;100.00
54854;BME280;40747;49.480;8.658;2023-03-04T03:46:21;101029.78;;;-2.29;100.00
54854;BME280;40747;49.480;8.658;2023-03-04T03:48:46;101025.50;;;-2.29;100.00
54854;BME280;40747;49.480;8.658;2023-03-04T03:51:11;101028.31;;;-2.21;100.00
54854;BME280;40747;49.480;8.658;2023-03-04T03:53:37;101026.19;;;-2.07;100.00
54854;BME280;40747;49.480;8.658;2023-03-04T03:56:02;101032.38;;;-2.02;100.00
54854;BME280;40747;49.480;8.658;2023-03-04T03:58:28;101015.44;;;-1.94;100.00
54854;BME280;40747;49.480;8.658;2023-03-04T04:00:53;101004.25;;;-1.66;100.00
54854;BME280;40747;49.480;8.658;2023-03-04T04:03:18;101026.53;;;-1.40;100.00
54854;BME280;40747;49.480;8.658;2023-03-04T04:05:44;101020.81;;;-1.30;100.00
54854;BME280;40747;49.480;8.658;2023-03-04T04:08:13;101024.00;;;-1.39;100.00
54854;BME280;40747;49.480;8.658;2023-03-04T04:10:40;101016.72;;;-1.22;99.95
54854;BME280;40747;49.480;8.658;2023-03-04T04:13:05;101024.88;;;-1.08;99.88
54854;BME280;40747;49.480;8.658;2023-03-04T04:15:31;101029.47;;;-0.97;99.15
54854;BME280;40747;49.480;8.658;2023-03-04T04:17:56;101014.66;;;-1.03;98.74
54854;BME280;40747;49.480;8.658;2023-03-04T04:20:21;101028.91;;;-1.18;99.17
54854;BME280;40747;49.480;8.658;2023-03-04T04:22:47;101001.19;;;-1.22;99.66
54854;BME280;40747;49.480;8.658;2023-03-04T04:25:12;101018.50;;;-1.19;99.64
54854;BME280;40747;49.480;8.658;2023-03-04T04:27:37;101015.94;;;-1.19;100.00
54854;BME280;40747;49.480;8.658;2023-03-04T04:30:03;101014.41;;;-1.12;100.00
54854;BME280;40747;49.480;8.658;2023-03-04T04:32:29;101010.69;;;-0.90;99.80
54854;BME280;40747;49.480;8.658;2023-03-04T04:34:54;101014.63;;;-0.73;98.80
54854;BME280;40747;49.480;8.658;2023-03-04T04:37:19;101007.97;;;-0.63;97.71
54854;BME280;40747;49.480;8.658;2023-03-04T04:39:45;101016.88;;;-0.52;97.00
54854;BME280;40747;49.480;8.658;2023-03-04T04:42:10;101017.19;;;-0.41;95.86
54854;BME280;40747;49.480;8.658;2023-03-04T04:44:35;101026.66;;;-0.40;95.07
54854;BME280;40747;49.480;8.658;2023-03-04T04:47:04;101020.63;;;-0.40;94.37
54854;BME280;40747;49.480;8.658;2023-03-04T04:49:32;101030.97;;;-0.40;94.22
54854;BME280;40747;49.480;8.658;2023-03-04T04:51:58;101016.25;;;-0.43;93.34
54854;BME280;40747;49.480;8.658;2023-03-04T04:54:24;101027.44;;;-0.44;92.54
54854;BME280;40747;49.480;8.658;2023-03-04T04:56:49;101030.72;;;-0.51;93.21
54854;BME280;40747;49.480;8.658;2023-03-04T04:59:15;101027.25;;;-0.52;93.73
54854;BME280;40747;49.480;8.658;2023-03-04T05:01:40;101030.03;;;-0.44;93.38
54854;BME280;40747;49.480;8.658;2023-03-04T05:04:05;101032.81;;;-0.36;93.57
54854;BME280;40747;49.480;8.658;2023-03-04T05:06:31;101025.13;;;-0.33;93.95
54854;BME280;40747;49.480;8.658;2023-03-04T05:08:56;101017.22;;;-0.39;94.17
54854;BME280;40747;49.480;8.658;2023-03-04T05:11:21;101027.63;;;-0.36;94.25
54854;BME280;40747;49.480;8.658;2023-03-04T05:13:47;101027.72;;;-0.33;94.58
54854;BME280;40747;49.480;8.658;2023-03-04T05:16:16;101026.56;;;-0.44;95.90
54854;BME280;40747;49.480;8.658;2023-03-04T05:18:42;101017.59;;;-0.59;96.65
54854;BME280;40747;49.480;8.658;2023-03-04T05:21:10;101023.78;;;-0.52;97.11
54854;BME280;40747;49.480;8.658;2023-03-04T05:23:38;101025.66;;;-0.46;96.93
54854;BME280;40747;49.480;8.658;2023-03-04T05:26:05;101036.09;;;-0.43;97.39
54854;BME280;40747;49.480;8.658;2023-03-04T05:28:31;101035.50;;;-0.33;96.77
54854;BME280;40747;49.480;8.658;2023-03-04T05:30:57;101033.78;;;-0.31;95.97
54854;BME280;40747;49.480;8.658;2023-03-04T05:33:22;101033.97;;;-0.58;95.93
54854;BME280;40747;49.480;8.658;2023-03-04T05:35:48;101030.13;;;-0.41;95.83
54854;BME280;40747;49.480;8.658;2023-03-04T05:38:16;101033.38;;;-0.48;95.48
54854;BME280;40747;49.480;8.658;2023-03-04T05:40:42;101029.75;;;-0.55;95.46
54854;BME280;40747;49.480;8.658;2023-03-04T05:43:08;101016.81;;;-0.55;96.66
54854;BME280;40747;49.480;8.658;2023-03-04T05:45:34;101024.06;;;-0.40;97.01
54854;BME280;40747;49.480;8.658;2023-03-04T05:47:59;101025.13;;;-0.33;96.73
54854;BME280;40747;49.480;8.658;2023-03-04T05:50:25;101015.31;;;-0.45;96.86
54854;BME280;40747;49.480;8.658;2023-03-04T05:52:51;101030.41;;;-0.28;97.04
54854;BME280;40747;49.480;8.658;2023-03-04T05:55:16;101032.19;;;-0.26;97.24
54854;BME280;40747;49.480;8.658;2023-03-04T05:57:42;101024.75;;;-0.13;96.35
54854;BME280;40747;49.480;8.658;2023-03-04T06:00:08;101033.63;;;-0.04;96.19
54854;BME280;40747;49.480;8.658;2023-03-04T06:02:35;101023.19;;;-0.05;96.60
54854;BME280;40747;49.480;8.658;2023-03-04T06:05:00;101039.94;;;0.08;95.87
54854;BME280;40747;49.480;8.658;2023-03-04T06:07:26;101037.28;;;0.06;95.69
54854;BME280;40747;49.480;8.658;2023-03-04T06:09:51;101051.09;;;0.05;96.30
54854;BME280;40747;49.480;8.658;2023-03-04T06:12:16;101046.84;;;0.09;96.13
54854;BME280;40747;49.480;8.658;2023-03-04T06:14:41;101053.56;;;0.01;95.80
54854;BME280;40747;49.480;8.658;2023-03-04T06:17:07;101061.56;;;0.10;95.82
54854;BME280;40747;49.480;8.658;2023-03-04T06:19:32;101058.97;;;0.10;96.10
54854;BME280;40747;49.480;8.658;2023-03-04T06:21:58;101060.94;;;0.20;95.93
54854;BME280;40747;49.480;8.658;2023-03-04T06:24:23;101014.53;;;-0.07;95.92
54854;BME280;40747;49.480;8.658;2023-03-04T06:26:48;101056.09;;;0.36;95.28
54854;BME280;40747;49.480;8.658;2023-03-04T06:29:14;101051.97;;;0.42;95.22
54854;BME280;40747;49.480;8.658;2023-03-04T06:31:40;101060.72;;;0.47;94.71
54854;BME280;40747;49.480;8.658;2023-03-04T06:34:09;101065.13;;;0.52;94.03
54854;BME280;40747;49.480;8.658;2023-03-04T06:36:37;101065.94;;;0.49;94.02
54854;BME280;40747;49.480;8.658;2023-03-04T06:39:06;101064.47;;;0.62;94.05
54854;BME280;40747;49.480;8.658;2023-03-04T06:41:33;101072.13;;;0.56;93.81
54854;BME280;40747;49.480;8.658;2023-03-04T06:43:58;101070.66;;;0.69;93.79
54854;BME280;40747;49.480;8.658;2023-03-04T06:46:24;101079.41;;;0.72;92.74
54854;BME280;40747;49.480;8.658;2023-03-04T06:48:49;101079.25;;;0.66;92.30
54854;BME280;40747;49.480;8.658;2023-03-04T06:51:15;101075.88;;;0.70;92.65
54854;BME280;40747;49.480;8.658;2023-03-04T06:53:40;101073.22;;;0.67;92.80
54854;BME280;40747;49.480;8.658;2023-03-04T06:56:07;101082.63;;;0.62;93.34
54854;BME280;40747;49.480;8.658;2023-03-04T06:58:33;101085.13;;;0.59;93.74
54854;BME280;40747;49.480;8.658;2023-03-04T07:03:46;101095.38;;;0.53;94.16
54854;BME280;40747;49.480;8.658;2023-03-04T07:06:13;101088.78;;;0.67;93.16
54854;BME280;40747;49.480;8.658;2023-03-04T07:08:40;101089.66;;;0.68;93.72
54854;BME280;40747;49.480;8.658;2023-03-04T07:11:05;101085.38;;;0.70;94.52
54854;BME280;40747;49.480;8.658;2023-03-04T07:13:31;101094.56;;;0.17;94.70
54854;BME280;40747;49.480;8.658;2023-03-04T07:15:59;101100.38;;;-0.27;97.61
54854;BME280;40747;49.480;8.658;2023-03-04T07:18:24;101087.09;;;-0.71;99.66
54854;BME280;40747;49.480;8.658;2023-03-04T07:20:53;101094.88;;;-0.71;100.00
54854;BME280;40747;49.480;8.658;2023-03-04T07:23:18;101102.59;;;-1.03;100.00
54854;BME280;40747;49.480;8.658;2023-03-04T07:25:44;101090.56;;;-1.01;100.00
54854;BME280;40747;49.480;8.658;2023-03-04T07:28:10;101102.63;;;-0.71;100.00
54854;BME280;40747;49.480;8.658;2023-03-04T07:30:35;101100.72;;;-0.77;100.00
54854;BME280;40747;49.480;8.658;2023-03-04T07:33:00;101106.47;;;-0.87;100.00
54854;BME280;40747;49.480;8.658;2023-03-04T07:35:26;101112.19;;;-0.99;100.00
54854;BME280;40747;49.480;8.658;2023-03-04T07:37:51;101110.59;;;-0.63;100.00
54854;BME280;40747;49.480;8.658;2023-03-04T07:40:17;101125.38;;;-0.90;100.00
54854;BME280;40747;49.480;8.658;2023-03-04T07:42:42;101117.25;;;-0.72;100.00
54854;BME280;40747;49.480;8.658;2023-03-04T07:45:09;101117.00;;;-0.51;100.00
54854;BME280;40747;49.480;8.658;2023-03-04T07:47:34;101118.84;;;-0.77;100.00
54854;BME280;40747;49.480;8.658;2023-03-04T07:49:59;101124.75;;;-0.81;100.00
54854;BME280;40747;49.480;8.658;2023-03-04T07:52:25;101127.81;;;-0.64;100.00
54854;BME280;40747;49.480;8.658;2023-03-04T07:54:50;101123.03;;;-0.50;100.00
54854;BME280;40747;49.480;8.658;2023-03-04T07:57:15;101124.09;;;-0.43;100.00
54854;BME280;40747;49.480;8.658;2023-03-04T07:59:41;101129.69;;;-0.28;100.00
54854;BME280;40747;49.480;8.658;2023-03-04T08:02:06;101124.94;;;-0.75;100.00
54854;BME280;40747;49.480;8.658;2023-03-04T08:04:35;101128.56;;;-0.38;100.00
54854;BME280;40747;49.480;8.658;2023-03-04T08:07:00;101127.81;;;0.00;100.00
54854;BME280;40747;49.480;8.658;2023-03-04T08:09:25;101136.09;;;0.22;100.00
54854;BME280;40747;49.480;8.658;2023-03-04T08:11:51;101129.84;;;0.48;100.00
54854;BME280;40747;49.480;8.658;2023-03-04T08:14:16;101128.91;;;0.45;100.00
54854;BME280;40747;49.480;8.658;2023-03-04T08:16:41;101131.94;;;0.65;99.76
54854;BME280;40747;49.480;8.658;2023-03-04T08:19:07;101126.25;;;0.80;98.80
54854;BME280;40747;49.480;8.658;2023-03-04T08:21:33;101131.25;;;0.72;97.61
54854;BME280;40747;49.480;8.658;2023-03-04T08:24:00;101135.88;;;0.86;97.65
54854;BME280;40747;49.480;8.658;2023-03-04T08:26:32;101135.03;;;0.87;97.43
54854;BME280;40747;49.480;8.658;2023-03-04T08:29:01;101130.06;;;0.96;96.85
54854;BME280;40747;49.480;8.658;2023-03-04T08:31:27;101138.91;;;1.06;96.25
54854;BME280;40747;49.480;8.658;2023-03-04T08:33:52;101122.47;;;1.05;96.48
54854;BME280;40747;49.480;8.658;2023-03-04T08:36:18;101127.72;;;1.08;95.92
54854;BME280;40747;49.480;8.658;2023-03-04T08:38:44;101136.56;;;1.17;95.77
54854;BME280;40747;49.480;8.658;2023-03-04T08:41:09;101139.47;;;1.34;95.44
54854;BME280;40747;49.480;8.658;2023-03-04T08:43:35;101133.50;;;1.38;94.30
54854;BME280;40747;49.480;8.658;2023-03-04T08:46:01;101127.44;;;1.37;95.17
54854;BME280;40747;49.480;8.658;2023-03-04T08:48:26;101126.53;;;1.35;94.73
54854;BME280;40747;49.480;8.658;2023-03-04T08:50:52;101137.34;;;1.57;94.64
54854;BME280;40747;49.480;8.658;2023-03-04T08:53:18;101130.59;;;1.67;93.28
54854;BME280;40747;49.480;8.658;2023-03-04T08:55:45;101123.81;;;1.73;92.90
54854;BME280;40747;49.480;8.658;2023-03-04T08:58:11;101138.72;;;1.84;93.50
54854;BME280;40747;49.480;8.658;2023-03-04T09:00:41;101137.91;;;1.88;92.97
54854;BME280;40747;49.480;8.658;2023-03-04T09:03:10;101131.13;;;1.94;92.06
54854;BME280;40747;49.480;8.658;2023-03-04T09:05:36;101127.63;;;1.92;91.95
54854;BME280;40747;49.480;8.658;2023-03-04T09:08:01;101135.53;;;1.99;91.92
54854;BME280;40747;49.480;8.658;2023-03-04T09:10:27;101126.91;;;2.03;92.31
54854;BME280;40747;49.480;8.658;2023-03-04T09:12:52;101135.72;;;2.11;92.21
54854;BME280;40747;49.480;8.658;2023-03-04T09:15:17;101136.00;;;2.26;91.34
54854;BME280;40747;49.480;8.658;2023-03-04T09:17:43;101104.81;;;2.28;89.90
54854;BME280;40747;49.480;8.658;2023-03-04T09:20:10;101132.19;;;2.61;89.03
54854;BME280;40747;49.480;8.658;2023-03-04T09:22:37;101129.72;;;2.69;88.74
54854;BME280;40747;49.480;8.658;2023-03-04T09:25:04;101138.25;;;2.60;88.24
54854;BME280;40747;49.480;8.658;2023-03-04T09:27:29;101139.84;;;2.52;88.99
54854;BME280;40747;49.480;8.658;2023-03-04T09:29:55;101132.94;;;2.52;89.14
54854;BME280;40747;49.480;8.658;2023-03-04T09:32:20;101134.88;;;2.67;88.60
54854;BME280;40747;49.480;8.658;2023-03-04T09:34:45;101130.78;;;2.85;88.14
54854;BME280;40747;49.480;8.658;2023-03-04T09:37:11;101124.00;;;2.96;87.15
54854;BME280;40747;49.480;8.658;2023-03-04T09:39:36;101131.09;;;3.06;86.17
54854;BME280;40747;49.480;8.658;2023-03-04T09:42:05;101134.63;;;3.11;85.58
54854;BME280;40747;49.480;8.658;2023-03-04T09:44:32;101125.88;;;3.06;85.75
54854;BME280;40747;49.480;8.658;2023-03-04T09:47:03;101134.41;;;2.94;86.19
54854;BME280;40747;49.480;8.658;2023-03-04T09:49:33;101130.97;;;2.95;86.33
54854;BME280;40747;49.480;8.658;2023-03-04T09:54:52;101138.06;;;3.10;85.86
54854;BME280;40747;49.480;8.658;2023-03-04T09:57:44;101146.59;;;2.97;85.70
54854;BME280;40747;49.480;8.658;2023-03-04T10:00:25;101141.41;;;2.99;86.68
54854;BME280;40747;49.480;8.658;2023-03-04T10:03:14;101142.44;;;3.13;86.22
54854;BME280;40747;49.480;8.658;2023-03-04T10:06:03;101140.00;;;3.25;85.86
54854;BME280;40747;49.480;8.658;2023-03-04T10:08:37;101147.00;;;3.28;85.28
54854;BME280;40747;49.480;8.658;2023-03-04T10:11:42;101141.84;;;3.34;85.37
54854;BME280;40747;49.480;8.658;2023-03-04T10:16:52;101143.78;;;3.51;84.58
54854;BME280;40747;49.480;8.658;2023-03-04T10:19:29;101141.38;;;3.68;85.43
54854;BME280;40747;49.480;8.658;2023-03-04T10:21:58;101136.28;;;3.79;84.76
54854;BME280;40747;49.480;8.658;2023-03-04T10:24:27;101147.56;;;3.81;83.20
54854;BME280;40747;49.480;8.658;2023-03-04T10:27:04;101138.97;;;3.88;84.02
54854;BME280;40747;49.480;8.658;2023-03-04T10:29:32;101131.03;;;3.77;84.24
54854;BME280;40747;49.480;8.658;2023-03-04T10:31:57;101132.91;;;3.90;83.58
54854;BME280;40747;49.480;8.658;2023-03-04T10:34:23;101139.84;;;3.11;86.97
54854;BME280;40747;49.480;8.658;2023-03-04T10:37:04;101142.69;;;2.13;89.92
54854;BME280;40747;49.480;8.658;2023-03-04T10:39:43;101145.13;;;2.04;94.05
54854;BME280;40747;49.480;8.658;2023-03-04T10:44:58;101137.06;;;2.39;91.39
54854;BME280;40747;49.480;8.658;2023-03-04T10:47:28;101136.94;;;2.32;93.02
54854;BME280;40747;49.480;8.658;2023-03-04T10:49:58;101138.25;;;2.61;91.33
54854;BME280;40747;49.480;8.658;2023-03-04T10:52:30;101134.69;;;2.53;92.10
54854;BME280;40747;49.480;8.658;2023-03-04T10:55:05;101132.75;;;3.01;90.12
54854;BME280;40747;49.480;8.658;2023-03-04T10:57:34;101116.75;;;3.39;88.69
54854;BME280;40747;49.480;8.658;2023-03-04T11:02:50;101114.59;;;3.83;84.89
54854;BME280;40747;49.480;8.658;2023-03-04T11:05:19;101111.31;;;4.02;84.52
54854;BME280;40747;49.480;8.658;2023-03-04T11:07:58;101113.13;;;4.13;83.45
54854;BME280;40747;49.480;8.658;2023-03-04T11:10:30;101108.88;;;4.27;82.83
54854;BME280;40747;49.480;8.658;2023-03-04T11:13:08;101109.53;;;3.98;82.41
54854;BME280;40747;49.480;8.658;2023-03-04T11:15:56;101108.53;;;3.07;85.68
54854;BME280;40747;49.480;8.658;2023-03-04T11:18:44;101105.16;;;2.51;87.72
54854;BME280;40747;49.480;8.658;2023-03-04T11:21:16;101097.78;;;2.81;89.60
54854;BME280;40747;49.480;8.658;2023-03-04T11:23:53;101096.31;;;3.01;88.69
54854;BME280;40747;49.480;8.658;2023-03-04T11:26:27;101082.03;;;3.40;87.33
54854;BME280;40747;49.480;8.658;2023-03-04T11:31:35;101079.69;;;3.68;85.23
54854;BME280;40747;49.480;8.658;2023-03-04T11:34:07;101079.06;;;3.92;83.95
54854;BME280;40747;49.480;8.658;2023-03-04T11:36:56;101080.19;;;4.21;82.64
54854;BME280;40747;49.480;8.658;2023-03-04T11:39:36;101074.16;;;4.31;81.18
54854;BME280;40747;49.480;8.658;2023-03-04T11:42:22;101071.56;;;4.34;79.88
54854;BME280;40747;49.480;8.658;2023-03-04T11:44:50;101073.31;;;4.37;81.04
54854;BME280;40747;49.480;8.658;2023-03-04T11:47:25;101066.44;;;4.45;80.27
54854;BME280;40747;49.480;8.658;2023-03-04T11:50:13;101074.41;;;4.73;80.35
54854;BME280;40747;49.480;8.658;2023-03-04T11:58:03;101070.28;;;5.23;77.29
54854;BME280;40747;49.480;8.658;2023-03-04T12:08:51;101054.66;;;5.35;75.71
54854;BME280;40747;49.480;8.658;2023-03-04T12:11:46;101055.50;;;5.30;75.06
54854;BME280;40747;49.480;8.658;2023-03-04T12:14:29;101048.50;;;5.24;75.70
54854;BME280;40747;49.480;8.658;2023-03-04T12:17:08;101049.44;;;5.41;74.61
54854;BME280;40747;49.480;8.658;2023-03-04T12:22:30;101038.94;;;5.20;72.23
54854;BME280;40747;49.480;8.658;2023-03-04T12:30:02;101025.84;;;5.15;74.83
54854;BME280;40747;49.480;8.658;2023-03-04T12:40:25;101036.16;;;3.56;76.08
54854;BME280;40747;49.480;8.658;2023-03-04T12:43:10;101034.00;;;3.14;78.80
54854;BME280;40747;49.480;8.658;2023-03-04T12:45:45;101030.56;;;3.15;79.32
54854;BME280;40747;49.480;8.658;2023-03-04T12:48:31;101027.81;;;3.05;80.07
54854;BME280;40747;49.480;8.658;2023-03-04T12:51:22;101012.22;;;3.07;80.83
54854;BME280;40747;49.480;8.658;2023-03-04T12:54:15;101014.09;;;3.19;81.20
54854;BME280;40747;49.480;8.658;2023-03-04T12:56:45;101018.31;;;3.09;81.94
54854;BME280;40747;49.480;8.658;2023-03-04T12:59:18;101012.25;;;3.10;81.26
54854;BME280;40747;49.480;8.658;2023-03-04T13:05:03;101002.72;;;3.10;80.38
54854;BME280;40747;49.480;8.658;2023-03-04T13:10:24;101009.75;;;3.21;81.47
54854;BME280;40747;49.480;8.658;2023-03-04T13:13:00;101003.84;;;3.34;81.03
54854;BME280;40747;49.480;8.658;2023-03-04T13:15:30;101009.97;;;3.42;81.42
54854;BME280;40747;49.480;8.658;2023-03-04T13:17:58;100994.41;;;3.46;80.21
54854;BME280;40747;49.480;8.658;2023-03-04T13:25:48;101002.63;;;3.01;82.80
54854;BME280;40747;49.480;8.658;2023-03-04T13:28:20;100989.69;;;3.07;81.59
54854;BME280;40747;49.480;8.658;2023-03-04T13:41:14;100988.91;;;3.15;83.00
54854;BME280;40747;49.480;8.658;2023-03-04T13:43:49;100978.41;;;3.08;81.98
54854;BME280;40747;49.480;8.658;2023-03-04T13:51:41;100974.22;;;3.23;81.83
54854;BME280;40747;49.480;8.658;2023-03-04T13:56:42;100949.28;;;3.50;81.24
54854;BME280;40747;49.480;8.658;2023-03-04T13:59:18;100966.22;;;4.09;79.20
54854;BME280;40747;49.480;8.658;2023-03-04T14:04:20;100955.94;;;4.35;78.00
54854;BME280;40747;49.480;8.658;2023-03-04T14:06:50;100964.75;;;4.59;76.82
54854;BME280;40747;49.480;8.658;2023-03-04T14:11:46;100960.63;;;5.38;74.71
54854;BME280;40747;49.480;8.658;2023-03-04T14:14:18;100952.78;;;5.63;73.32
54854;BME280;40747;49.480;8.658;2023-03-04T14:16:50;100949.28;;;5.35;72.49
54854;BME280;40747;49.480;8.658;2023-03-04T14:19:26;100951.03;;;5.33;72.80
54854;BME280;40747;49.480;8.658;2023-03-04T14:21:52;100957.13;;;5.44;72.79